Terminal Aerodrome Forecast
Issued by NWS

Home | Current Version | Previous Version | Text Only | Print | Product List | Glossary On
Versions: 1 2 3 4 5 6 7 8 9 10 11 12
000
FTUS42 KTAE 060539
TAFVLD
TAF
KVLD 060539Z 0606/0706 03003KT P6SM SKC
     FM061100 04003KT 6SM BR BKN010
     FM061300 06007KT P6SM SCT050 SCT250=

USA.gov is the U.S. government's official web portal to all federal, state and local government web resources and services.